sensor_id;sensor_type;location;lat;lon;timestamp;P1;durP1;ratioP1;P2;durP2;ratioP2
9364;SDS011;4722;49.340;9.800;2022-08-21T00:00:46;1.73;;;0.82;;
9364;SDS011;4722;49.340;9.800;2022-08-21T00:03:13;2.58;;;1.20;;
9364;SDS011;4722;49.340;9.800;2022-08-21T00:05:41;1.90;;;1.25;;
9364;SDS011;4722;49.340;9.800;2022-08-21T00:08:09;1.63;;;0.77;;
9364;SDS011;4722;49.340;9.800;2022-08-21T00:10:35;1.90;;;0.70;;
9364;SDS011;4722;49.340;9.800;2022-08-21T00:13:03;2.35;;;0.88;;
9364;SDS011;4722;49.340;9.800;2022-08-21T00:15:30;2.28;;;1.25;;
9364;SDS011;4722;49.340;9.800;2022-08-21T00:17:57;1.67;;;0.93;;
9364;SDS011;4722;49.340;9.800;2022-08-21T00:20:24;1.60;;;0.88;;
9364;SDS011;4722;49.340;9.800;2022-08-21T00:22:50;2.25;;;1.25;;
9364;SDS011;4722;49.340;9.800;2022-08-21T00:25:17;1.40;;;0.98;;
9364;SDS011;4722;49.340;9.800;2022-08-21T00:27:43;1.73;;;1.10;;
9364;SDS011;4722;49.340;9.800;2022-08-21T00:30:11;1.30;;;0.85;;
9364;SDS011;4722;49.340;9.800;2022-08-21T00:32:39;1.38;;;0.82;;
9364;SDS011;4722;49.340;9.800;2022-08-21T00:35:06;2.85;;;2.08;;
9364;SDS011;4722;49.340;9.800;2022-08-21T00:37:33;2.00;;;1.25;;
9364;SDS011;4722;49.340;9.800;2022-08-21T00:39:59;1.65;;;0.90;;
9364;SDS011;4722;49.340;9.800;2022-08-21T00:42:26;1.10;;;0.68;;
9364;SDS011;4722;49.340;9.800;2022-08-21T00:44:53;1.95;;;0.82;;
9364;SDS011;4722;49.340;9.800;2022-08-21T00:47:19;1.85;;;1.13;;
9364;SDS011;4722;49.340;9.800;2022-08-21T00:49:45;1.95;;;1.20;;
9364;SDS011;4722;49.340;9.800;2022-08-21T00:52:19;1.58;;;0.95;;
9364;SDS011;4722;49.340;9.800;2022-08-21T00:54:51;2.85;;;1.10;;
9364;SDS011;4722;49.340;9.800;2022-08-21T00:57:22;2.25;;;1.17;;
9364;SDS011;4722;49.340;9.800;2022-08-21T00:59:53;1.60;;;1.05;;
9364;SDS011;4722;49.340;9.800;2022-08-21T01:02:21;3.78;;;0.70;;
9364;SDS011;4722;49.340;9.800;2022-08-21T01:04:47;1.38;;;0.85;;
9364;SDS011;4722;49.340;9.800;2022-08-21T01:07:13;1.73;;;0.90;;
9364;SDS011;4722;49.340;9.800;2022-08-21T01:09:39;2.00;;;0.88;;
9364;SDS011;4722;49.340;9.800;2022-08-21T01:12:06;1.45;;;0.70;;
9364;SDS011;4722;49.340;9.800;2022-08-21T01:14:32;1.40;;;0.90;;
9364;SDS011;4722;49.340;9.800;2022-08-21T01:16:59;1.65;;;0.90;;
9364;SDS011;4722;49.340;9.800;2022-08-21T01:19:27;1.58;;;1.00;;
9364;SDS011;4722;49.340;9.800;2022-08-21T01:21:53;1.52;;;0.70;;
9364;SDS011;4722;49.340;9.800;2022-08-21T01:24:19;1.73;;;1.00;;
9364;SDS011;4722;49.340;9.800;2022-08-21T01:26:46;4.43;;;0.70;;
9364;SDS011;4722;49.340;9.800;2022-08-21T01:31:41;2.45;;;1.08;;
9364;SDS011;4722;49.340;9.800;2022-08-21T01:34:07;3.15;;;1.40;;
9364;SDS011;4722;49.340;9.800;2022-08-21T01:36:33;1.73;;;0.70;;
9364;SDS011;4722;49.340;9.800;2022-08-21T01:39:00;1.88;;;1.10;;
9364;SDS011;4722;49.340;9.800;2022-08-21T01:41:26;0.93;;;0.68;;
9364;SDS011;4722;49.340;9.800;2022-08-21T01:43:52;1.90;;;0.90;;
9364;SDS011;4722;49.340;9.800;2022-08-21T01:46:18;1.92;;;0.98;;
9364;SDS011;4722;49.340;9.800;2022-08-21T01:48:44;1.35;;;0.82;;
9364;SDS011;4722;49.340;9.800;2022-08-21T01:51:10;1.83;;;1.05;;
9364;SDS011;4722;49.340;9.800;2022-08-21T01:53:36;1.92;;;0.90;;
9364;SDS011;4722;49.340;9.800;2022-08-21T01:56:04;6.07;;;1.00;;
9364;SDS011;4722;49.340;9.800;2022-08-21T01:58:30;2.08;;;0.77;;
9364;SDS011;4722;49.340;9.800;2022-08-21T02:00:56;1.27;;;0.77;;
9364;SDS011;4722;49.340;9.800;2022-08-21T02:03:22;1.55;;;1.00;;
9364;SDS011;4722;49.340;9.800;2022-08-21T02:05:48;1.75;;;0.77;;
9364;SDS011;4722;49.340;9.800;2022-08-21T02:08:14;2.08;;;1.33;;
9364;SDS011;4722;49.340;9.800;2022-08-21T02:10:40;1.67;;;1.02;;
9364;SDS011;4722;49.340;9.800;2022-08-21T02:13:06;2.55;;;1.13;;
9364;SDS011;4722;49.340;9.800;2022-08-21T02:15:32;3.35;;;1.10;;
9364;SDS011;4722;49.340;9.800;2022-08-21T02:17:59;2.60;;;1.30;;
9364;SDS011;4722;49.340;9.800;2022-08-21T02:20:30;2.58;;;1.58;;
9364;SDS011;4722;49.340;9.800;2022-08-21T02:22:59;1.67;;;0.90;;
9364;SDS011;4722;49.340;9.800;2022-08-21T02:25:25;3.10;;;1.52;;
9364;SDS011;4722;49.340;9.800;2022-08-21T02:27:52;2.00;;;1.25;;
9364;SDS011;4722;49.340;9.800;2022-08-21T02:30:29;1.67;;;0.77;;
9364;SDS011;4722;49.340;9.800;2022-08-21T02:32:56;1.52;;;0.77;;
9364;SDS011;4722;49.340;9.800;2022-08-21T02:35:22;2.03;;;1.13;;
9364;SDS011;4722;49.340;9.800;2022-08-21T02:37:49;4.32;;;1.45;;
9364;SDS011;4722;49.340;9.800;2022-08-21T02:40:17;2.33;;;1.05;;
9364;SDS011;4722;49.340;9.800;2022-08-21T02:42:43;2.35;;;1.05;;
9364;SDS011;4722;49.340;9.800;2022-08-21T02:45:10;2.67;;;1.55;;
9364;SDS011;4722;49.340;9.800;2022-08-21T02:47:36;1.55;;;0.73;;
9364;SDS011;4722;49.340;9.800;2022-08-21T02:50:03;2.20;;;1.45;;
9364;SDS011;4722;49.340;9.800;2022-08-21T02:52:29;2.25;;;1.25;;
9364;SDS011;4722;49.340;9.800;2022-08-21T02:54:55;3.85;;;0.80;;
9364;SDS011;4722;49.340;9.800;2022-08-21T02:57:21;2.40;;;1.00;;
9364;SDS011;4722;49.340;9.800;2022-08-21T02:59:47;1.80;;;1.02;;
9364;SDS011;4722;49.340;9.800;2022-08-21T03:02:13;2.00;;;0.82;;
9364;SDS011;4722;49.340;9.800;2022-08-21T03:04:39;3.33;;;1.55;;
9364;SDS011;4722;49.340;9.800;2022-08-21T03:07:05;3.63;;;1.50;;
9364;SDS011;4722;49.340;9.800;2022-08-21T03:09:31;1.67;;;0.55;;
9364;SDS011;4722;49.340;9.800;2022-08-21T03:11:57;1.23;;;0.73;;
9364;SDS011;4722;49.340;9.800;2022-08-21T03:14:23;1.50;;;0.90;;
9364;SDS011;4722;49.340;9.800;2022-08-21T03:16:49;1.65;;;1.02;;
9364;SDS011;4722;49.340;9.800;2022-08-21T03:19:15;2.53;;;1.33;;
9364;SDS011;4722;49.340;9.800;2022-08-21T03:21:41;4.53;;;1.50;;
9364;SDS011;4722;49.340;9.800;2022-08-21T03:24:07;2.50;;;1.30;;
9364;SDS011;4722;49.340;9.800;2022-08-21T03:26:34;2.17;;;1.10;;
9364;SDS011;4722;49.340;9.800;2022-08-21T03:29:00;2.53;;;1.42;;
9364;SDS011;4722;49.340;9.800;2022-08-21T03:31:26;1.38;;;0.77;;
9364;SDS011;4722;49.340;9.800;2022-08-21T03:33:56;1.75;;;0.70;;
9364;SDS011;4722;49.340;9.800;2022-08-21T03:36:22;1.92;;;1.05;;
9364;SDS011;4722;49.340;9.800;2022-08-21T03:38:48;1.70;;;1.13;;
9364;SDS011;4722;49.340;9.800;2022-08-21T03:41:14;2.15;;;1.02;;
9364;SDS011;4722;49.340;9.800;2022-08-21T03:43:40;2.67;;;1.25;;
9364;SDS011;4722;49.340;9.800;2022-08-21T03:46:06;3.35;;;1.70;;
9364;SDS011;4722;49.340;9.800;2022-08-21T03:48:33;2.13;;;1.23;;
9364;SDS011;4722;49.340;9.800;2022-08-21T03:50:59;2.13;;;1.30;;
9364;SDS011;4722;49.340;9.800;2022-08-21T03:53:25;2.92;;;1.10;;
9364;SDS011;4722;49.340;9.800;2022-08-21T03:55:52;2.13;;;1.10;;
9364;SDS011;4722;49.340;9.800;2022-08-21T03:58:19;2.55;;;1.60;;
9364;SDS011;4722;49.340;9.800;2022-08-21T04:00:47;2.28;;;1.23;;
9364;SDS011;4722;49.340;9.800;2022-08-21T04:03:14;1.92;;;1.10;;
9364;SDS011;4722;49.340;9.800;2022-08-21T04:05:41;2.17;;;1.02;;
9364;SDS011;4722;49.340;9.800;2022-08-21T04:08:07;2.90;;;1.33;;
9364;SDS011;4722;49.340;9.800;2022-08-21T04:10:34;1.45;;;1.00;;
9364;SDS011;4722;49.340;9.800;2022-08-21T04:13:01;4.15;;;1.65;;
9364;SDS011;4722;49.340;9.800;2022-08-21T04:15:27;3.08;;;1.65;;
9364;SDS011;4722;49.340;9.800;2022-08-21T04:17:53;1.85;;;0.93;;
9364;SDS011;4722;49.340;9.800;2022-08-21T04:20:19;3.05;;;0.98;;
9364;SDS011;4722;49.340;9.800;2022-08-21T04:22:46;2.08;;;1.38;;
9364;SDS011;4722;49.340;9.800;2022-08-21T04:25:13;3.22;;;2.15;;
9364;SDS011;4722;49.340;9.800;2022-08-21T04:27:39;3.03;;;1.25;;
9364;SDS011;4722;49.340;9.800;2022-08-21T04:30:06;3.35;;;1.63;;
9364;SDS011;4722;49.340;9.800;2022-08-21T04:32:34;3.92;;;2.10;;
9364;SDS011;4722;49.340;9.800;2022-08-21T04:35:04;2.33;;;1.30;;
9364;SDS011;4722;49.340;9.800;2022-08-21T04:39:59;3.10;;;1.70;;
9364;SDS011;4722;49.340;9.800;2022-08-21T04:42:25;7.68;;;1.95;;
9364;SDS011;4722;49.340;9.800;2022-08-21T04:44:52;2.70;;;1.90;;
9364;SDS011;4722;49.340;9.800;2022-08-21T04:47:19;3.85;;;2.20;;
9364;SDS011;4722;49.340;9.800;2022-08-21T04:49:45;3.08;;;1.48;;
9364;SDS011;4722;49.340;9.800;2022-08-21T04:52:11;5.85;;;1.50;;
9364;SDS011;4722;49.340;9.800;2022-08-21T04:54:39;3.75;;;1.60;;
9364;SDS011;4722;49.340;9.800;2022-08-21T04:57:07;6.63;;;2.22;;
9364;SDS011;4722;49.340;9.800;2022-08-21T04:59:40;2.58;;;1.35;;
9364;SDS011;4722;49.340;9.800;2022-08-21T05:02:10;3.60;;;2.00;;
9364;SDS011;4722;49.340;9.800;2022-08-21T05:04:40;4.30;;;2.80;;
9364;SDS011;4722;49.340;9.800;2022-08-21T05:07:11;2.75;;;1.17;;
9364;SDS011;4722;49.340;9.800;2022-08-21T05:09:41;2.55;;;1.48;;
9364;SDS011;4722;49.340;9.800;2022-08-21T05:12:07;2.95;;;1.50;;
9364;SDS011;4722;49.340;9.800;2022-08-21T05:14:33;3.03;;;1.60;;
9364;SDS011;4722;49.340;9.800;2022-08-21T05:17:00;3.95;;;1.88;;
9364;SDS011;4722;49.340;9.800;2022-08-21T05:19:25;2.70;;;1.40;;
9364;SDS011;4722;49.340;9.800;2022-08-21T05:21:52;3.60;;;1.67;;
9364;SDS011;4722;49.340;9.800;2022-08-21T05:24:18;3.47;;;1.85;;
9364;SDS011;4722;49.340;9.800;2022-08-21T05:26:44;2.67;;;1.55;;
9364;SDS011;4722;49.340;9.800;2022-08-21T05:29:11;3.58;;;1.70;;
9364;SDS011;4722;49.340;9.800;2022-08-21T05:31:38;3.40;;;1.23;;
9364;SDS011;4722;49.340;9.800;2022-08-21T05:34:04;3.22;;;1.63;;
9364;SDS011;4722;49.340;9.800;2022-08-21T05:36:30;3.20;;;1.77;;
9364;SDS011;4722;49.340;9.800;2022-08-21T05:38:56;2.97;;;1.65;;
9364;SDS011;4722;49.340;9.800;2022-08-21T05:41:22;2.55;;;1.38;;
9364;SDS011;4722;49.340;9.800;2022-08-21T05:43:48;4.07;;;2.17;;
9364;SDS011;4722;49.340;9.800;2022-08-21T05:46:14;6.30;;;2.17;;
9364;SDS011;4722;49.340;9.800;2022-08-21T05:48:40;5.72;;;2.22;;
9364;SDS011;4722;49.340;9.800;2022-08-21T05:51:11;3.30;;;2.03;;
9364;SDS011;4722;49.340;9.800;2022-08-21T05:53:39;3.17;;;1.85;;
9364;SDS011;4722;49.340;9.800;2022-08-21T05:56:07;2.47;;;1.60;;
9364;SDS011;4722;49.340;9.800;2022-08-21T05:58:33;3.08;;;2.15;;
9364;SDS011;4722;49.340;9.800;2022-08-21T06:00:59;3.85;;;1.58;;
9364;SDS011;4722;49.340;9.800;2022-08-21T06:03:26;4.28;;;2.03;;
9364;SDS011;4722;49.340;9.800;2022-08-21T06:05:53;2.75;;;1.63;;
9364;SDS011;4722;49.340;9.800;2022-08-21T06:08:20;4.57;;;2.08;;
9364;SDS011;4722;49.340;9.800;2022-08-21T06:10:46;4.45;;;2.53;;
9364;SDS011;4722;49.340;9.800;2022-08-21T06:13:14;7.68;;;2.95;;
9364;SDS011;4722;49.340;9.800;2022-08-21T06:15:40;5.45;;;3.63;;
9364;SDS011;4722;49.340;9.800;2022-08-21T06:18:07;5.90;;;2.95;;
9364;SDS011;4722;49.340;9.800;2022-08-21T06:20:33;4.15;;;2.47;;
9364;SDS011;4722;49.340;9.800;2022-08-21T06:22:59;6.72;;;2.58;;
9364;SDS011;4722;49.340;9.800;2022-08-21T06:25:25;4.72;;;2.58;;
9364;SDS011;4722;49.340;9.800;2022-08-21T06:27:51;6.20;;;3.05;;
9364;SDS011;4722;49.340;9.800;2022-08-21T06:30:17;7.20;;;2.63;;
9364;SDS011;4722;49.340;9.800;2022-08-21T06:32:43;5.55;;;2.75;;
9364;SDS011;4722;49.340;9.800;2022-08-21T06:35:09;3.65;;;2.17;;
9364;SDS011;4722;49.340;9.800;2022-08-21T06:37:36;4.82;;;2.63;;
9364;SDS011;4722;49.340;9.800;2022-08-21T06:40:05;5.20;;;2.92;;
9364;SDS011;4722;49.340;9.800;2022-08-21T06:42:31;3.45;;;1.80;;
9364;SDS011;4722;49.340;9.800;2022-08-21T06:44:57;4.50;;;2.45;;
9364;SDS011;4722;49.340;9.800;2022-08-21T06:47:23;4.53;;;2.53;;
9364;SDS011;4722;49.340;9.800;2022-08-21T06:49:49;5.20;;;2.72;;
9364;SDS011;4722;49.340;9.800;2022-08-21T06:52:15;3.17;;;1.90;;
9364;SDS011;4722;49.340;9.800;2022-08-21T06:54:42;3.55;;;2.22;;
9364;SDS011;4722;49.340;9.800;2022-08-21T06:57:08;2.85;;;1.52;;
9364;SDS011;4722;49.340;9.800;2022-08-21T06:59:34;4.28;;;2.25;;
9364;SDS011;4722;49.340;9.800;2022-08-21T07:02:00;3.97;;;2.25;;
9364;SDS011;4722;49.340;9.800;2022-08-21T07:04:26;3.95;;;2.03;;
9364;SDS011;4722;49.340;9.800;2022-08-21T07:06:52;5.13;;;1.83;;
9364;SDS011;4722;49.340;9.800;2022-08-21T07:09:18;2.70;;;1.77;;
9364;SDS011;4722;49.340;9.800;2022-08-21T07:11:45;3.55;;;1.70;;
9364;SDS011;4722;49.340;9.800;2022-08-21T07:14:15;3.78;;;1.83;;
9364;SDS011;4722;49.340;9.800;2022-08-21T07:16:41;2.63;;;2.10;;
9364;SDS011;4722;49.340;9.800;2022-08-21T07:19:07;4.63;;;1.42;;
9364;SDS011;4722;49.340;9.800;2022-08-21T07:21:33;6.93;;;2.20;;
9364;SDS011;4722;49.340;9.800;2022-08-21T07:23:58;3.45;;;2.25;;
9364;SDS011;4722;49.340;9.800;2022-08-21T07:26:25;7.18;;;2.78;;
9364;SDS011;4722;49.340;9.800;2022-08-21T07:28:51;3.20;;;1.55;;
9364;SDS011;4722;49.340;9.800;2022-08-21T07:31:18;4.88;;;2.03;;
9364;SDS011;4722;49.340;9.800;2022-08-21T07:33:46;2.92;;;1.65;;
9364;SDS011;4722;49.340;9.800;2022-08-21T07:36:12;3.35;;;1.50;;
9364;SDS011;4722;49.340;9.800;2022-08-21T07:38:38;2.80;;;1.25;;
9364;SDS011;4722;49.340;9.800;2022-08-21T07:41:12;3.28;;;1.95;;
9364;SDS011;4722;49.340;9.800;2022-08-21T07:43:39;2.85;;;1.52;;
9364;SDS011;4722;49.340;9.800;2022-08-21T07:46:05;4.70;;;2.13;;
9364;SDS011;4722;49.340;9.800;2022-08-21T07:48:31;3.72;;;1.73;;
9364;SDS011;4722;49.340;9.800;2022-08-21T07:50:58;5.10;;;1.70;;
9364;SDS011;4722;49.340;9.800;2022-08-21T07:53:24;1.88;;;1.33;;
9364;SDS011;4722;49.340;9.800;2022-08-21T07:55:50;5.10;;;2.70;;
9364;SDS011;4722;49.340;9.800;2022-08-21T07:58:16;3.03;;;1.83;;
9364;SDS011;4722;49.340;9.800;2022-08-21T08:00:42;9.25;;;3.28;;
9364;SDS011;4722;49.340;9.800;2022-08-21T08:03:08;6.10;;;2.17;;
9364;SDS011;4722;49.340;9.800;2022-08-21T08:05:34;4.18;;;2.13;;
9364;SDS011;4722;49.340;9.800;2022-08-21T08:08:02;4.82;;;2.28;;
9364;SDS011;4722;49.340;9.800;2022-08-21T08:10:28;5.30;;;2.13;;
9364;SDS011;4722;49.340;9.800;2022-08-21T08:12:54;4.13;;;2.13;;
9364;SDS011;4722;49.340;9.800;2022-08-21T08:15:21;5.78;;;2.53;;
9364;SDS011;4722;49.340;9.800;2022-08-21T08:17:47;2.75;;;1.98;;
9364;SDS011;4722;49.340;9.800;2022-08-21T08:20:15;2.92;;;2.00;;
9364;SDS011;4722;49.340;9.800;2022-08-21T08:22:41;4.85;;;2.20;;
9364;SDS011;4722;49.340;9.800;2022-08-21T08:25:12;4.97;;;2.00;;
9364;SDS011;4722;49.340;9.800;2022-08-21T08:27:38;6.45;;;2.92;;
9364;SDS011;4722;49.340;9.800;2022-08-21T08:30:05;6.28;;;2.47;;
9364;SDS011;4722;49.340;9.800;2022-08-21T08:32:31;4.55;;;2.13;;
9364;SDS011;4722;49.340;9.800;2022-08-21T08:34:57;7.65;;;1.92;;
9364;SDS011;4722;49.340;9.800;2022-08-21T08:37:25;3.33;;;2.45;;
9364;SDS011;4722;49.340;9.800;2022-08-21T08:39:51;4.68;;;1.90;;
9364;SDS011;4722;49.340;9.800;2022-08-21T08:42:20;4.03;;;1.90;;
9364;SDS011;4722;49.340;9.800;2022-08-21T08:44:46;4.72;;;1.80;;
9364;SDS011;4722;49.340;9.800;2022-08-21T08:47:13;3.78;;;1.92;;
9364;SDS011;4722;49.340;9.800;2022-08-21T08:49:53;4.22;;;1.52;;
9364;SDS011;4722;49.340;9.800;2022-08-21T08:52:31;2.42;;;1.40;;
9364;SDS011;4722;49.340;9.800;2022-08-21T08:55:19;2.90;;;1.98;;
9364;SDS011;4722;49.340;9.800;2022-08-21T08:57:57;3.15;;;1.83;;
9364;SDS011;4722;49.340;9.800;2022-08-21T09:00:24;2.28;;;1.30;;
9364;SDS011;4722;49.340;9.800;2022-08-21T09:02:51;5.07;;;1.30;;
9364;SDS011;4722;49.340;9.800;2022-08-21T09:05:22;2.15;;;1.23;;
9364;SDS011;4722;49.340;9.800;2022-08-21T09:10:22;2.65;;;1.42;;
9364;SDS011;4722;49.340;9.800;2022-08-21T09:13:24;2.17;;;1.77;;
9364;SDS011;4722;49.340;9.800;2022-08-21T09:19:32;1.65;;;1.17;;
9364;SDS011;4722;49.340;9.800;2022-08-21T09:22:29;2.15;;;1.20;;
9364;SDS011;4722;49.340;9.800;2022-08-21T09:27:46;1.48;;;0.77;;
9364;SDS011;4722;49.340;9.800;2022-08-21T09:30:13;2.65;;;1.77;;
9364;SDS011;4722;49.340;9.800;2022-08-21T09:32:39;1.98;;;1.13;;
9364;SDS011;4722;49.340;9.800;2022-08-21T09:37:51;3.17;;;1.20;;
9364;SDS011;4722;49.340;9.800;2022-08-21T09:40:35;2.70;;;1.20;;
9364;SDS011;4722;49.340;9.800;2022-08-21T09:43:06;1.70;;;1.15;;
9364;SDS011;4722;49.340;9.800;2022-08-21T09:45:32;2.40;;;0.88;;
9364;SDS011;4722;49.340;9.800;2022-08-21T09:48:13;1.95;;;0.95;;
9364;SDS011;4722;49.340;9.800;2022-08-21T09:50:50;3.55;;;0.93;;
9364;SDS011;4722;49.340;9.800;2022-08-21T09:55:52;2.08;;;1.13;;
9364;SDS011;4722;49.340;9.800;2022-08-21T09:58:41;1.77;;;0.82;;
9364;SDS011;4722;49.340;9.800;2022-08-21T10:01:20;5.70;;;1.35;;
9364;SDS011;4722;49.340;9.800;2022-08-21T10:03:47;2.92;;;0.95;;
9364;SDS011;4722;49.340;9.800;2022-08-21T10:06:24;2.75;;;1.25;;
9364;SDS011;4722;49.340;9.800;2022-08-21T10:09:02;1.70;;;0.88;;
9364;SDS011;4722;49.340;9.800;2022-08-21T10:11:30;2.28;;;0.93;;
9364;SDS011;4722;49.340;9.800;2022-08-21T10:22:24;2.50;;;0.80;;
9364;SDS011;4722;49.340;9.800;2022-08-21T10:25:14;1.65;;;0.80;;
9364;SDS011;4722;49.340;9.800;2022-08-21T10:27:52;4.07;;;1.40;;
9364;SDS011;4722;49.340;9.800;2022-08-21T10:30:24;2.03;;;0.95;;
9364;SDS011;4722;49.340;9.800;2022-08-21T10:33:23;5.10;;;1.27;;
9364;SDS011;4722;49.340;9.800;2022-08-21T10:36:17;2.30;;;0.80;;
9364;SDS011;4722;49.340;9.800;2022-08-21T10:38:55;4.30;;;0.95;;
9364;SDS011;4722;49.340;9.800;2022-08-21T10:52:00;4.65;;;0.98;;
9364;SDS011;4722;49.340;9.800;2022-08-21T10:57:52;2.92;;;1.25;;
9364;SDS011;4722;49.340;9.800;2022-08-21T11:00:36;2.75;;;0.90;;
9364;SDS011;4722;49.340;9.800;2022-08-21T11:03:07;1.02;;;0.60;;
9364;SDS011;4722;49.340;9.800;2022-08-21T11:05:38;7.95;;;1.35;;
9364;SDS011;4722;49.340;9.800;2022-08-21T11:08:14;1.63;;;0.80;;
9364;SDS011;4722;49.340;9.800;2022-08-21T11:10:48;3.53;;;1.10;;
9364;SDS011;4722;49.340;9.800;2022-08-21T11:13:27;2.28;;;0.98;;
9364;SDS011;4722;49.340;9.800;2022-08-21T11:22:00;3.38;;;0.90;;
9364;SDS011;4722;49.340;9.800;2022-08-21T11:24:38;1.98;;;0.85;;
9364;SDS011;4722;49.340;9.800;2022-08-21T11:29:56;5.75;;;0.65;;
9364;SDS011;4722;49.340;9.800;2022-08-21T11:35:23;2.67;;;0.80;;
9364;SDS011;4722;49.340;9.800;2022-08-21T11:43:41;8.38;;;1.55;;
9364;SDS011;4722;49.340;9.800;2022-08-21T11:54:07;1.80;;;0.95;;
9364;SDS011;4722;49.340;9.800;2022-08-21T11:57:03;4.20;;;1.30;;
9364;SDS011;4722;49.340;9.800;2022-08-21T12:02:19;1.52;;;0.73;;
9364;SDS011;4722;49.340;9.800;2022-08-21T12:04:49;2.30;;;0.70;;
9364;SDS011;4722;49.340;9.800;2022-08-21T12:07:30;1.98;;;0.82;;
9364;SDS011;4722;49.340;9.800;2022-08-21T12:10:07;1.52;;;0.98;;
9364;SDS011;4722;49.340;9.800;2022-08-21T12:12:40;1.83;;;1.10;;
9364;SDS011;4722;49.340;9.800;2022-08-21T12:17:55;2.88;;;1.08;;
9364;SDS011;4722;49.340;9.800;2022-08-21T12:25:38;3.33;;;0.85;;
9364;SDS011;4722;49.340;9.800;2022-08-21T12:28:11;2.47;;;0.80;;
9364;SDS011;4722;49.340;9.800;2022-08-21T12:30:42;2.10;;;0.52;;
9364;SDS011;4722;49.340;9.800;2022-08-21T12:33:21;4.13;;;1.25;;
9364;SDS011;4722;49.340;9.800;2022-08-21T12:36:06;4.13;;;1.10;;
9364;SDS011;4722;49.340;9.800;2022-08-21T12:38:52;2.08;;;0.75;;
9364;SDS011;4722;49.340;9.800;2022-08-21T12:41:31;1.83;;;0.85;;
9364;SDS011;4722;49.340;9.800;2022-08-21T12:44:07;1.13;;;0.50;;
9364;SDS011;4722;49.340;9.800;2022-08-21T12:46:50;1.85;;;0.98;;
9364;SDS011;4722;49.340;9.800;2022-08-21T12:49:35;1.17;;;0.70;;
9364;SDS011;4722;49.340;9.800;2022-08-21T12:52:16;2.72;;;1.08;;
9364;SDS011;4722;49.340;9.800;2022-08-21T12:54:47;1.98;;;1.00;;
9364;SDS011;4722;49.340;9.800;2022-08-21T12:57:23;2.63;;;0.80;;
9364;SDS011;4722;49.340;9.800;2022-08-21T12:59:55;3.00;;;0.70;;
9364;SDS011;4722;49.340;9.800;2022-08-21T13:02:24;3.13;;;1.52;;
9364;SDS011;4722;49.340;9.800;2022-08-21T13:04:54;4.07;;;0.93;;
9364;SDS011;4722;49.340;9.800;2022-08-21T13:07:25;2.35;;;1.00;;
9364;SDS011;4722;49.340;9.800;2022-08-21T13:12:30;1.58;;;0.60;;
9364;SDS011;4722;49.340;9.800;2022-08-21T13:14:59;3.33;;;0.80;;
9364;SDS011;4722;49.340;9.800;2022-08-21T13:17:30;1.80;;;0.85;;
9364;SDS011;4722;49.340;9.800;2022-08-21T13:20:00;4.05;;;0.93;;
9364;SDS011;4722;49.340;9.800;2022-08-21T13:22:44;3.28;;;1.02;;
9364;SDS011;4722;49.340;9.800;2022-08-21T13:25:11;1.98;;;0.93;;
9364;SDS011;4722;49.340;9.800;2022-08-21T13:27:38;2.25;;;0.68;;
9364;SDS011;4722;49.340;9.800;2022-08-21T13:30:17;1.63;;;0.55;;
9364;SDS011;4722;49.340;9.800;2022-08-21T13:32:46;1.90;;;0.70;;
9364;SDS011;4722;49.340;9.800;2022-08-21T13:35:16;1.25;;;0.82;;
9364;SDS011;4722;49.340;9.800;2022-08-21T13:37:48;1.60;;;0.88;;
9364;SDS011;4722;49.340;9.800;2022-08-21T13:40:20;1.75;;;1.00;;
9364;SDS011;4722;49.340;9.800;2022-08-21T13:42:50;1.58;;;0.75;;
9364;SDS011;4722;49.340;9.800;2022-08-21T13:45:21;1.70;;;1.08;;
9364;SDS011;4722;49.340;9.800;2022-08-21T13:47:52;2.75;;;0.70;;
9364;SDS011;4722;49.340;9.800;2022-08-21T13:50:19;3.30;;;0.90;;
9364;SDS011;4722;49.340;9.800;2022-08-21T13:52:56;2.55;;;0.98;;
9364;SDS011;4722;49.340;9.800;2022-08-21T13:55:26;2.45;;;0.90;;
9364;SDS011;4722;49.340;9.800;2022-08-21T13:58:04;1.23;;;0.75;;
9364;SDS011;4722;49.340;9.800;2022-08-21T14:00:31;2.13;;;0.65;;
9364;SDS011;4722;49.340;9.800;2022-08-21T14:03:02;2.75;;;0.70;;
9364;SDS011;4722;49.340;9.800;2022-08-21T14:05:35;2.20;;;1.10;;
9364;SDS011;4722;49.340;9.800;2022-08-21T14:08:12;1.60;;;0.60;;
9364;SDS011;4722;49.340;9.800;2022-08-21T14:10:41;3.38;;;1.13;;
9364;SDS011;4722;49.340;9.800;2022-08-21T14:13:48;2.05;;;1.00;;
9364;SDS011;4722;49.340;9.800;2022-08-21T14:16:42;3.05;;;0.98;;
9364;SDS011;4722;49.340;9.800;2022-08-21T14:19:18;4.25;;;1.35;;
9364;SDS011;4722;49.340;9.800;2022-08-21T14:21:46;2.90;;;1.08;;
9364;SDS011;4722;49.340;9.800;2022-08-21T14:24:14;2.83;;;0.90;;
9364;SDS011;4722;49.340;9.800;2022-08-21T14:27:23;1.98;;;1.05;;
9364;SDS011;4722;49.340;9.800;2022-08-21T14:29:43;2.50;;;1.00;;
9364;SDS011;4722;49.340;9.800;2022-08-21T14:32:12;1.35;;;0.82;;
9364;SDS011;4722;49.340;9.800;2022-08-21T14:34:45;2.28;;;1.27;;
9364;SDS011;4722;49.340;9.800;2022-08-21T14:37:10;3.15;;;0.82;;
9364;SDS011;4722;49.340;9.800;2022-08-21T14:39:36;3.72;;;1.00;;
9364;SDS011;4722;49.340;9.800;2022-08-21T14:42:03;2.03;;;0.90;;
9364;SDS011;4722;49.340;9.800;2022-08-21T14:44:29;2.63;;;1.05;;
9364;SDS011;4722;49.340;9.800;2022-08-21T14:46:58;2.80;;;0.88;;
9364;SDS011;4722;49.340;9.800;2022-08-21T14:49:24;2.42;;;1.13;;
9364;SDS011;4722;49.340;9.800;2022-08-21T14:51:52;1.90;;;1.02;;
9364;SDS011;4722;49.340;9.800;2022-08-21T14:54:22;3.63;;;1.17;;
9364;SDS011;4722;49.340;9.800;2022-08-21T14:56:48;1.73;;;0.88;;
9364;SDS011;4722;49.340;9.800;2022-08-21T14:59:14;1.95;;;0.88;;
9364;SDS011;4722;49.340;9.800;2022-08-21T15:01:40;3.47;;;1.08;;
9364;SDS011;4722;49.340;9.800;2022-08-21T15:04:06;2.03;;;0.93;;
9364;SDS011;4722;49.340;9.800;2022-08-21T15:06:32;2.72;;;1.27;;
9364;SDS011;4722;49.340;9.800;2022-08-21T15:08:58;2.22;;;1.08;;
9364;SDS011;4722;49.340;9.800;2022-08-21T15:11:24;3.33;;;1.00;;
9364;SDS011;4722;49.340;9.800;2022-08-21T15:13:52;3.40;;;1.55;;
9364;SDS011;4722;49.340;9.800;2022-08-21T15:16:20;5.28;;;1.00;;
9364;SDS011;4722;49.340;9.800;2022-08-21T15:18:46;2.00;;;0.82;;
9364;SDS011;4722;49.340;9.800;2022-08-21T15:21:12;2.25;;;0.90;;
9364;SDS011;4722;49.340;9.800;2022-08-21T15:23:38;2.65;;;1.30;;
9364;SDS011;4722;49.340;9.800;2022-08-21T15:26:04;3.80;;;0.73;;
9364;SDS011;4722;49.340;9.800;2022-08-21T15:28:30;3.58;;;0.80;;
9364;SDS011;4722;49.340;9.800;2022-08-21T15:30:57;1.90;;;0.88;;
9364;SDS011;4722;49.340;9.800;2022-08-21T15:33:25;1.58;;;0.70;;
9364;SDS011;4722;49.340;9.800;2022-08-21T15:35:51;2.22;;;0.80;;
9364;SDS011;4722;49.340;9.800;2022-08-21T15:38:17;1.73;;;0.70;;
9364;SDS011;4722;49.340;9.800;2022-08-21T15:40:43;2.42;;;1.00;;
9364;SDS011;4722;49.340;9.800;2022-08-21T15:43:11;3.85;;;1.00;;
9364;SDS011;4722;49.340;9.800;2022-08-21T15:45:54;2.55;;;1.05;;
9364;SDS011;4722;49.340;9.800;2022-08-21T15:48:21;3.38;;;0.95;;
9364;SDS011;4722;49.340;9.800;2022-08-21T15:50:47;4.00;;;0.80;;
9364;SDS011;4722;49.340;9.800;2022-08-21T15:53:13;2.92;;;0.90;;
9364;SDS011;4722;49.340;9.800;2022-08-21T15:55:39;5.50;;;1.48;;
9364;SDS011;4722;49.340;9.800;2022-08-21T15:58:05;2.42;;;1.00;;
9364;SDS011;4722;49.340;9.800;2022-08-21T16:00:31;1.58;;;0.70;;
9364;SDS011;4722;49.340;9.800;2022-08-21T16:03:00;2.00;;;0.80;;
9364;SDS011;4722;49.340;9.800;2022-08-21T16:05:29;1.75;;;0.70;;
9364;SDS011;4722;49.340;9.800;2022-08-21T16:07:56;2.05;;;1.00;;
9364;SDS011;4722;49.340;9.800;2022-08-21T16:10:23;1.50;;;0.82;;
9364;SDS011;4722;49.340;9.800;2022-08-21T16:12:50;2.70;;;1.02;;
9364;SDS011;4722;49.340;9.800;2022-08-21T16:15:35;2.17;;;0.75;;
9364;SDS011;4722;49.340;9.800;2022-08-21T16:18:01;1.63;;;0.82;;
9364;SDS011;4722;49.340;9.800;2022-08-21T16:20:28;2.13;;;1.10;;
9364;SDS011;4722;49.340;9.800;2022-08-21T16:22:55;1.48;;;0.80;;
9364;SDS011;4722;49.340;9.800;2022-08-21T16:25:22;3.53;;;1.00;;
9364;SDS011;4722;49.340;9.800;2022-08-21T16:27:52;1.70;;;0.73;;
9364;SDS011;4722;49.340;9.800;2022-08-21T16:30:21;3.22;;;1.05;;
9364;SDS011;4722;49.340;9.800;2022-08-21T16:32:48;2.38;;;1.13;;
9364;SDS011;4722;49.340;9.800;2022-08-21T16:35:15;2.15;;;1.00;;
9364;SDS011;4722;49.340;9.800;2022-08-21T16:37:42;2.72;;;1.15;;
9364;SDS011;4722;49.340;9.800;2022-08-21T16:40:08;5.45;;;1.30;;
9364;SDS011;4722;49.340;9.800;2022-08-21T16:42:35;3.28;;;0.90;;
9364;SDS011;4722;49.340;9.800;2022-08-21T16:45:04;3.35;;;0.85;;
9364;SDS011;4722;49.340;9.800;2022-08-21T16:47:31;1.73;;;0.70;;